Aviation Digital Data Service (ADDS)

Output produced by METARs form (2225 UTC 26 February 2020)
found at http://www.aviationweather.gov/metar/data/
 
METAR text: KGYI 262150Z 31012G21KT 10SM SCT050 08/M06 A3041
Conditions at: KGYI (SHERMAN/DENISON , TX, US) observed 2150 UTC 26 February 2020
Temperature: 8.0°C (46°F)
Dewpoint: -6.0°C (21°F) [RH = 36%]
Pressure (altimeter): 30.41 inches Hg (1029.9 mb)
Winds: from the NW (310 degrees) at 14 MPH (12 knots; 6.2 m/s)
gusting to 24 MPH (21 knots; 10.8 m/s)
Visibility: 10 or more miles (16+ km)
Ceiling: at least 12,000 feet AGL
Clouds: scattered clouds at 5000 feet AGL
Weather: no significant weather observed at this time